sensor_id;sensor_type;location;lat;lon;timestamp;P1;durP1;ratioP1;P2;durP2;ratioP2
4001;SDS011;2015;48.670;9.060;2022-07-21T00:00:27;24.27;;;20.73;;
4001;SDS011;2015;48.670;9.060;2022-07-21T00:02:58;24.63;;;20.93;;
4001;SDS011;2015;48.670;9.060;2022-07-21T00:05:30;28.73;;;21.47;;
4001;SDS011;2015;48.670;9.060;2022-07-21T00:08:02;25.13;;;21.43;;
4001;SDS011;2015;48.670;9.060;2022-07-21T00:10:34;26.90;;;23.70;;
4001;SDS011;2015;48.670;9.060;2022-07-21T00:13:06;25.03;;;22.33;;
4001;SDS011;2015;48.670;9.060;2022-07-21T00:15:38;27.13;;;22.43;;
4001;SDS011;2015;48.670;9.060;2022-07-21T00:18:10;22.73;;;19.60;;
4001;SDS011;2015;48.670;9.060;2022-07-21T00:20:42;22.73;;;19.40;;
4001;SDS011;2015;48.670;9.060;2022-07-21T00:23:14;20.50;;;17.50;;
4001;SDS011;2015;48.670;9.060;2022-07-21T00:25:47;21.20;;;18.63;;
4001;SDS011;2015;48.670;9.060;2022-07-21T00:28:19;20.20;;;18.00;;
4001;SDS011;2015;48.670;9.060;2022-07-21T00:30:51;22.90;;;18.57;;
4001;SDS011;2015;48.670;9.060;2022-07-21T00:33:23;31.93;;;19.00;;
4001;SDS011;2015;48.670;9.060;2022-07-21T00:35:55;20.17;;;18.10;;
4001;SDS011;2015;48.670;9.060;2022-07-21T00:38:26;21.43;;;19.33;;
4001;SDS011;2015;48.670;9.060;2022-07-21T00:40:59;21.27;;;18.80;;
4001;SDS011;2015;48.670;9.060;2022-07-21T00:43:30;21.40;;;18.23;;
4001;SDS011;2015;48.670;9.060;2022-07-21T00:46:02;29.60;;;18.60;;
4001;SDS011;2015;48.670;9.060;2022-07-21T00:48:34;19.77;;;16.67;;
4001;SDS011;2015;48.670;9.060;2022-07-21T00:51:06;16.43;;;14.73;;
4001;SDS011;2015;48.670;9.060;2022-07-21T00:53:38;15.80;;;14.20;;
4001;SDS011;2015;48.670;9.060;2022-07-21T00:56:10;20.37;;;17.07;;
4001;SDS011;2015;48.670;9.060;2022-07-21T00:58:42;21.40;;;16.33;;
4001;SDS011;2015;48.670;9.060;2022-07-21T01:01:14;17.80;;;16.10;;
4001;SDS011;2015;48.670;9.060;2022-07-21T01:03:46;15.63;;;14.00;;
4001;SDS011;2015;48.670;9.060;2022-07-21T01:06:18;14.90;;;13.40;;
4001;SDS011;2015;48.670;9.060;2022-07-21T01:08:49;13.70;;;12.33;;
4001;SDS011;2015;48.670;9.060;2022-07-21T01:11:24;15.50;;;14.00;;
4001;SDS011;2015;48.670;9.060;2022-07-21T01:13:56;15.23;;;12.83;;
4001;SDS011;2015;48.670;9.060;2022-07-21T01:16:28;12.87;;;11.57;;
4001;SDS011;2015;48.670;9.060;2022-07-21T01:19:00;15.73;;;12.40;;
4001;SDS011;2015;48.670;9.060;2022-07-21T01:21:33;16.47;;;13.40;;
4001;SDS011;2015;48.670;9.060;2022-07-21T01:24:07;16.60;;;11.50;;
4001;SDS011;2015;48.670;9.060;2022-07-21T01:26:50;13.77;;;12.30;;
4001;SDS011;2015;48.670;9.060;2022-07-21T01:29:23;15.90;;;14.20;;
4001;SDS011;2015;48.670;9.060;2022-07-21T01:31:55;15.50;;;13.90;;
4001;SDS011;2015;48.670;9.060;2022-07-21T01:34:27;13.30;;;12.10;;
4001;SDS011;2015;48.670;9.060;2022-07-21T01:36:59;16.60;;;14.90;;
4001;SDS011;2015;48.670;9.060;2022-07-21T01:39:31;16.40;;;12.07;;
4001;SDS011;2015;48.670;9.060;2022-07-21T01:42:22;13.70;;;12.00;;
4001;SDS011;2015;48.670;9.060;2022-07-21T01:44:55;13.53;;;12.13;;
4001;SDS011;2015;48.670;9.060;2022-07-21T01:47:28;14.10;;;12.60;;
4001;SDS011;2015;48.670;9.060;2022-07-21T01:50:00;14.97;;;12.83;;
4001;SDS011;2015;48.670;9.060;2022-07-21T01:52:32;15.80;;;12.80;;
4001;SDS011;2015;48.670;9.060;2022-07-21T01:55:04;15.73;;;12.00;;
4001;SDS011;2015;48.670;9.060;2022-07-21T01:57:36;15.80;;;12.40;;
4001;SDS011;2015;48.670;9.060;2022-07-21T02:00:08;13.60;;;12.27;;
4001;SDS011;2015;48.670;9.060;2022-07-21T02:02:41;14.97;;;11.90;;
4001;SDS011;2015;48.670;9.060;2022-07-21T02:05:12;14.27;;;12.27;;
4001;SDS011;2015;48.670;9.060;2022-07-21T02:07:44;20.53;;;12.07;;
4001;SDS011;2015;48.670;9.060;2022-07-21T02:10:16;11.43;;;10.27;;
4001;SDS011;2015;48.670;9.060;2022-07-21T02:12:48;13.93;;;10.87;;
4001;SDS011;2015;48.670;9.060;2022-07-21T02:15:20;12.63;;;11.33;;
4001;SDS011;2015;48.670;9.060;2022-07-21T02:17:51;16.87;;;11.60;;
4001;SDS011;2015;48.670;9.060;2022-07-21T02:20:23;11.43;;;10.33;;
4001;SDS011;2015;48.670;9.060;2022-07-21T02:22:55;12.87;;;10.73;;
4001;SDS011;2015;48.670;9.060;2022-07-21T02:25:27;14.83;;;12.40;;
4001;SDS011;2015;48.670;9.060;2022-07-21T02:27:59;13.80;;;11.80;;
4001;SDS011;2015;48.670;9.060;2022-07-21T02:30:31;15.10;;;12.50;;
4001;SDS011;2015;48.670;9.060;2022-07-21T02:33:03;14.60;;;13.10;;
4001;SDS011;2015;48.670;9.060;2022-07-21T02:35:35;14.40;;;12.13;;
4001;SDS011;2015;48.670;9.060;2022-07-21T02:38:07;13.83;;;12.43;;
4001;SDS011;2015;48.670;9.060;2022-07-21T02:40:39;14.13;;;12.77;;
4001;SDS011;2015;48.670;9.060;2022-07-21T02:43:12;14.93;;;13.23;;
4001;SDS011;2015;48.670;9.060;2022-07-21T02:45:44;13.23;;;11.87;;
4001;SDS011;2015;48.670;9.060;2022-07-21T02:48:16;14.10;;;12.60;;
4001;SDS011;2015;48.670;9.060;2022-07-21T02:50:47;18.40;;;11.93;;
4001;SDS011;2015;48.670;9.060;2022-07-21T02:53:19;14.77;;;13.37;;
4001;SDS011;2015;48.670;9.060;2022-07-21T02:55:54;19.17;;;12.80;;
4001;SDS011;2015;48.670;9.060;2022-07-21T02:58:26;14.63;;;13.13;;
4001;SDS011;2015;48.670;9.060;2022-07-21T03:01:00;17.53;;;13.20;;
4001;SDS011;2015;48.670;9.060;2022-07-21T03:03:37;14.80;;;13.30;;
4001;SDS011;2015;48.670;9.060;2022-07-21T03:06:09;14.53;;;13.03;;
4001;SDS011;2015;48.670;9.060;2022-07-21T03:08:40;14.13;;;12.70;;
4001;SDS011;2015;48.670;9.060;2022-07-21T03:11:12;13.20;;;11.90;;
4001;SDS011;2015;48.670;9.060;2022-07-21T03:13:44;14.60;;;12.90;;
4001;SDS011;2015;48.670;9.060;2022-07-21T03:16:16;14.60;;;13.20;;
4001;SDS011;2015;48.670;9.060;2022-07-21T03:18:48;13.10;;;11.90;;
4001;SDS011;2015;48.670;9.060;2022-07-21T03:21:20;18.30;;;12.33;;
4001;SDS011;2015;48.670;9.060;2022-07-21T03:23:52;17.87;;;13.10;;
4001;SDS011;2015;48.670;9.060;2022-07-21T03:26:24;13.67;;;12.23;;
4001;SDS011;2015;48.670;9.060;2022-07-21T03:28:56;13.90;;;12.43;;
4001;SDS011;2015;48.670;9.060;2022-07-21T03:31:28;15.23;;;12.00;;
4001;SDS011;2015;48.670;9.060;2022-07-21T03:33:59;16.73;;;13.27;;
4001;SDS011;2015;48.670;9.060;2022-07-21T03:36:31;14.53;;;12.80;;
4001;SDS011;2015;48.670;9.060;2022-07-21T03:39:03;13.30;;;11.77;;
4001;SDS011;2015;48.670;9.060;2022-07-21T03:41:35;15.23;;;13.83;;
4001;SDS011;2015;48.670;9.060;2022-07-21T03:44:07;14.37;;;12.80;;
4001;SDS011;2015;48.670;9.060;2022-07-21T03:46:39;15.53;;;13.20;;
4001;SDS011;2015;48.670;9.060;2022-07-21T03:49:11;17.83;;;13.37;;
4001;SDS011;2015;48.670;9.060;2022-07-21T03:51:43;13.40;;;11.57;;
4001;SDS011;2015;48.670;9.060;2022-07-21T03:54:14;14.77;;;13.20;;
4001;SDS011;2015;48.670;9.060;2022-07-21T03:56:46;21.10;;;12.80;;
4001;SDS011;2015;48.670;9.060;2022-07-21T03:59:18;16.13;;;12.57;;
4001;SDS011;2015;48.670;9.060;2022-07-21T04:01:50;16.57;;;12.93;;
4001;SDS011;2015;48.670;9.060;2022-07-21T04:04:22;15.03;;;13.40;;
4001;SDS011;2015;48.670;9.060;2022-07-21T04:06:54;15.90;;;13.17;;
4001;SDS011;2015;48.670;9.060;2022-07-21T04:09:25;16.08;;;13.23;;
4001;SDS011;2015;48.670;9.060;2022-07-21T04:11:57;16.23;;;13.47;;
4001;SDS011;2015;48.670;9.060;2022-07-21T04:14:29;16.87;;;15.10;;
4001;SDS011;2015;48.670;9.060;2022-07-21T04:17:01;14.93;;;12.30;;
4001;SDS011;2015;48.670;9.060;2022-07-21T04:19:33;16.97;;;12.93;;
4001;SDS011;2015;48.670;9.060;2022-07-21T04:22:04;15.07;;;13.43;;
4001;SDS011;2015;48.670;9.060;2022-07-21T04:24:36;17.27;;;13.40;;
4001;SDS011;2015;48.670;9.060;2022-07-21T04:27:08;18.17;;;14.20;;
4001;SDS011;2015;48.670;9.060;2022-07-21T04:29:40;14.60;;;12.73;;
4001;SDS011;2015;48.670;9.060;2022-07-21T04:32:12;17.30;;;13.87;;
4001;SDS011;2015;48.670;9.060;2022-07-21T04:34:43;14.93;;;13.30;;
4001;SDS011;2015;48.670;9.060;2022-07-21T04:37:15;16.50;;;13.43;;
4001;SDS011;2015;48.670;9.060;2022-07-21T04:39:48;14.90;;;13.40;;
4001;SDS011;2015;48.670;9.060;2022-07-21T04:42:23;15.23;;;13.63;;
4001;SDS011;2015;48.670;9.060;2022-07-21T04:44:55;14.57;;;12.80;;
4001;SDS011;2015;48.670;9.060;2022-07-21T04:47:27;14.90;;;13.40;;
4001;SDS011;2015;48.670;9.060;2022-07-21T04:49:59;14.60;;;13.10;;
4001;SDS011;2015;48.670;9.060;2022-07-21T04:52:31;14.88;;;13.20;;
4001;SDS011;2015;48.670;9.060;2022-07-21T04:55:03;14.47;;;12.77;;
4001;SDS011;2015;48.670;9.060;2022-07-21T04:57:36;14.73;;;13.23;;
4001;SDS011;2015;48.670;9.060;2022-07-21T05:00:10;16.60;;;14.00;;
4001;SDS011;2015;48.670;9.060;2022-07-21T05:02:44;14.53;;;12.97;;
4001;SDS011;2015;48.670;9.060;2022-07-21T05:05:17;16.77;;;13.37;;
4001;SDS011;2015;48.670;9.060;2022-07-21T05:07:49;14.70;;;13.23;;
4001;SDS011;2015;48.670;9.060;2022-07-21T05:10:21;17.27;;;15.30;;
4001;SDS011;2015;48.670;9.060;2022-07-21T05:12:54;16.43;;;14.80;;
4001;SDS011;2015;48.670;9.060;2022-07-21T05:15:26;18.10;;;14.70;;
4001;SDS011;2015;48.670;9.060;2022-07-21T05:17:58;22.30;;;14.10;;
4001;SDS011;2015;48.670;9.060;2022-07-21T05:20:29;16.53;;;13.80;;
4001;SDS011;2015;48.670;9.060;2022-07-21T05:23:01;14.77;;;13.17;;
4001;SDS011;2015;48.670;9.060;2022-07-21T05:25:33;16.27;;;14.57;;
4001;SDS011;2015;48.670;9.060;2022-07-21T05:28:06;16.33;;;14.67;;
4001;SDS011;2015;48.670;9.060;2022-07-21T05:30:38;19.03;;;14.80;;
4001;SDS011;2015;48.670;9.060;2022-07-21T05:33:10;17.17;;;13.90;;
4001;SDS011;2015;48.670;9.060;2022-07-21T05:35:42;15.30;;;13.80;;
4001;SDS011;2015;48.670;9.060;2022-07-21T05:38:14;14.77;;;13.33;;
4001;SDS011;2015;48.670;9.060;2022-07-21T05:40:47;17.33;;;15.57;;
4001;SDS011;2015;48.670;9.060;2022-07-21T05:43:18;16.43;;;14.77;;
4001;SDS011;2015;48.670;9.060;2022-07-21T05:45:50;16.97;;;14.93;;
4001;SDS011;2015;48.670;9.060;2022-07-21T05:48:29;19.70;;;16.23;;
4001;SDS011;2015;48.670;9.060;2022-07-21T05:51:01;19.70;;;14.70;;
4001;SDS011;2015;48.670;9.060;2022-07-21T05:53:33;16.10;;;14.50;;
4001;SDS011;2015;48.670;9.060;2022-07-21T05:56:04;15.10;;;13.50;;
4001;SDS011;2015;48.670;9.060;2022-07-21T05:58:37;15.57;;;13.47;;
4001;SDS011;2015;48.670;9.060;2022-07-21T06:01:09;15.90;;;14.27;;
4001;SDS011;2015;48.670;9.060;2022-07-21T06:03:46;16.23;;;14.63;;
4001;SDS011;2015;48.670;9.060;2022-07-21T06:06:20;16.57;;;13.90;;
4001;SDS011;2015;48.670;9.060;2022-07-21T06:08:51;20.37;;;16.00;;
4001;SDS011;2015;48.670;9.060;2022-07-21T06:11:25;17.90;;;15.50;;
4001;SDS011;2015;48.670;9.060;2022-07-21T06:14:00;17.97;;;16.07;;
4001;SDS011;2015;48.670;9.060;2022-07-21T06:16:32;19.90;;;16.20;;
4001;SDS011;2015;48.670;9.060;2022-07-21T06:19:05;16.73;;;14.97;;
4001;SDS011;2015;48.670;9.060;2022-07-21T06:21:40;14.83;;;13.43;;
4001;SDS011;2015;48.670;9.060;2022-07-21T06:24:17;16.43;;;14.80;;
4001;SDS011;2015;48.670;9.060;2022-07-21T06:26:50;15.57;;;13.83;;
4001;SDS011;2015;48.670;9.060;2022-07-21T06:29:23;15.53;;;14.10;;
4001;SDS011;2015;48.670;9.060;2022-07-21T06:31:55;14.77;;;13.33;;
4001;SDS011;2015;48.670;9.060;2022-07-21T06:34:27;18.33;;;14.50;;
4001;SDS011;2015;48.670;9.060;2022-07-21T06:36:59;14.80;;;12.73;;
4001;SDS011;2015;48.670;9.060;2022-07-21T06:39:31;15.20;;;13.40;;
4001;SDS011;2015;48.670;9.060;2022-07-21T06:42:03;15.20;;;13.80;;
4001;SDS011;2015;48.670;9.060;2022-07-21T06:44:36;17.33;;;13.90;;
4001;SDS011;2015;48.670;9.060;2022-07-21T06:47:08;14.27;;;12.97;;
4001;SDS011;2015;48.670;9.060;2022-07-21T06:49:40;14.90;;;13.50;;
4001;SDS011;2015;48.670;9.060;2022-07-21T06:52:12;15.13;;;12.90;;
4001;SDS011;2015;48.670;9.060;2022-07-21T06:54:44;15.47;;;13.83;;
4001;SDS011;2015;48.670;9.060;2022-07-21T06:57:16;15.23;;;13.73;;
4001;SDS011;2015;48.670;9.060;2022-07-21T06:59:48;15.33;;;12.20;;
4001;SDS011;2015;48.670;9.060;2022-07-21T07:02:19;25.20;;;13.90;;
4001;SDS011;2015;48.670;9.060;2022-07-21T07:04:51;17.70;;;15.10;;
4001;SDS011;2015;48.670;9.060;2022-07-21T07:07:23;15.20;;;13.83;;
4001;SDS011;2015;48.670;9.060;2022-07-21T07:09:55;15.17;;;13.57;;
4001;SDS011;2015;48.670;9.060;2022-07-21T07:12:28;14.10;;;12.70;;
4001;SDS011;2015;48.670;9.060;2022-07-21T07:15:19;13.30;;;12.10;;
4001;SDS011;2015;48.670;9.060;2022-07-21T07:17:52;17.57;;;14.47;;
4001;SDS011;2015;48.670;9.060;2022-07-21T07:20:24;14.70;;;13.00;;
4001;SDS011;2015;48.670;9.060;2022-07-21T07:22:56;14.50;;;13.13;;
4001;SDS011;2015;48.670;9.060;2022-07-21T07:25:28;15.40;;;12.50;;
4001;SDS011;2015;48.670;9.060;2022-07-21T07:28:01;13.87;;;12.00;;
4001;SDS011;2015;48.670;9.060;2022-07-21T07:30:35;12.27;;;11.17;;
4001;SDS011;2015;48.670;9.060;2022-07-21T07:33:07;13.00;;;11.83;;
4001;SDS011;2015;48.670;9.060;2022-07-21T07:35:38;13.27;;;11.97;;
4001;SDS011;2015;48.670;9.060;2022-07-21T07:38:14;13.30;;;12.07;;
4001;SDS011;2015;48.670;9.060;2022-07-21T07:40:46;11.07;;;10.13;;
4001;SDS011;2015;48.670;9.060;2022-07-21T07:43:18;12.40;;;11.20;;
4001;SDS011;2015;48.670;9.060;2022-07-21T07:45:50;19.00;;;13.50;;
4001;SDS011;2015;48.670;9.060;2022-07-21T07:48:22;11.27;;;10.27;;
4001;SDS011;2015;48.670;9.060;2022-07-21T07:50:53;15.13;;;11.47;;
4001;SDS011;2015;48.670;9.060;2022-07-21T07:53:25;12.20;;;11.10;;
4001;SDS011;2015;48.670;9.060;2022-07-21T07:55:57;11.20;;;10.17;;
4001;SDS011;2015;48.670;9.060;2022-07-21T07:58:29;11.90;;;10.93;;
4001;SDS011;2015;48.670;9.060;2022-07-21T08:01:02;12.27;;;11.17;;
4001;SDS011;2015;48.670;9.060;2022-07-21T08:03:39;12.63;;;10.80;;
4001;SDS011;2015;48.670;9.060;2022-07-21T08:06:10;11.83;;;10.77;;
4001;SDS011;2015;48.670;9.060;2022-07-21T08:08:42;11.00;;;10.13;;
4001;SDS011;2015;48.670;9.060;2022-07-21T08:11:14;12.70;;;11.70;;
4001;SDS011;2015;48.670;9.060;2022-07-21T08:13:46;11.07;;;10.17;;
4001;SDS011;2015;48.670;9.060;2022-07-21T08:16:18;11.07;;;10.07;;
4001;SDS011;2015;48.670;9.060;2022-07-21T08:18:50;13.30;;;10.80;;
4001;SDS011;2015;48.670;9.060;2022-07-21T08:21:22;10.73;;;9.73;;
4001;SDS011;2015;48.670;9.060;2022-07-21T08:24:20;10.20;;;9.23;;
4001;SDS011;2015;48.670;9.060;2022-07-21T08:26:52;11.20;;;10.20;;
4001;SDS011;2015;48.670;9.060;2022-07-21T08:29:24;10.10;;;9.20;;
4001;SDS011;2015;48.670;9.060;2022-07-21T08:31:56;10.30;;;9.37;;
4001;SDS011;2015;48.670;9.060;2022-07-21T08:34:28;10.07;;;9.30;;
4001;SDS011;2015;48.670;9.060;2022-07-21T08:37:00;10.10;;;9.20;;
4001;SDS011;2015;48.670;9.060;2022-07-21T08:39:31;10.38;;;9.40;;
4001;SDS011;2015;48.670;9.060;2022-07-21T08:42:06;12.60;;;11.50;;
4001;SDS011;2015;48.670;9.060;2022-07-21T08:44:38;10.40;;;9.40;;
4001;SDS011;2015;48.670;9.060;2022-07-21T08:47:10;10.47;;;9.67;;
4001;SDS011;2015;48.670;9.060;2022-07-21T08:49:42;10.37;;;9.60;;
4001;SDS011;2015;48.670;9.060;2022-07-21T08:52:17;9.00;;;8.30;;
4001;SDS011;2015;48.670;9.060;2022-07-21T08:54:49;9.13;;;8.43;;
4001;SDS011;2015;48.670;9.060;2022-07-21T08:57:21;8.65;;;8.05;;
4001;SDS011;2015;48.670;9.060;2022-07-21T08:59:53;9.20;;;8.60;;
4001;SDS011;2015;48.670;9.060;2022-07-21T09:02:30;8.23;;;7.63;;
4001;SDS011;2015;48.670;9.060;2022-07-21T09:05:03;8.43;;;7.82;;
4001;SDS011;2015;48.670;9.060;2022-07-21T09:07:53;8.77;;;8.15;;
4001;SDS011;2015;48.670;9.060;2022-07-21T09:10:30;8.85;;;8.05;;
4001;SDS011;2015;48.670;9.060;2022-07-21T09:13:05;9.00;;;8.32;;
4001;SDS011;2015;48.670;9.060;2022-07-21T09:15:38;9.75;;;8.95;;
4001;SDS011;2015;48.670;9.060;2022-07-21T09:18:11;9.35;;;8.50;;
4001;SDS011;2015;48.670;9.060;2022-07-21T09:20:46;8.50;;;7.90;;
4001;SDS011;2015;48.670;9.060;2022-07-21T09:23:21;8.93;;;8.32;;
4001;SDS011;2015;48.670;9.060;2022-07-21T09:25:55;9.55;;;8.85;;
4001;SDS011;2015;48.670;9.060;2022-07-21T09:28:30;9.73;;;8.98;;
4001;SDS011;2015;48.670;9.060;2022-07-21T09:31:02;8.00;;;7.50;;
4001;SDS011;2015;48.670;9.060;2022-07-21T09:33:37;8.55;;;7.80;;
4001;SDS011;2015;48.670;9.060;2022-07-21T09:38:50;9.07;;;8.48;;
4001;SDS011;2015;48.670;9.060;2022-07-21T09:41:27;8.50;;;7.85;;
4001;SDS011;2015;48.670;9.060;2022-07-21T09:44:00;7.72;;;7.32;;
4001;SDS011;2015;48.670;9.060;2022-07-21T09:46:32;8.23;;;7.72;;
4001;SDS011;2015;48.670;9.060;2022-07-21T09:49:04;7.35;;;6.93;;
4001;SDS011;2015;48.670;9.060;2022-07-21T09:51:57;8.10;;;7.32;;
4001;SDS011;2015;48.670;9.060;2022-07-21T09:54:29;8.32;;;7.93;;
4001;SDS011;2015;48.670;9.060;2022-07-21T09:57:00;8.18;;;7.60;;
4001;SDS011;2015;48.670;9.060;2022-07-21T09:59:33;7.45;;;6.95;;
4001;SDS011;2015;48.670;9.060;2022-07-21T10:02:26;6.80;;;6.40;;
4001;SDS011;2015;48.670;9.060;2022-07-21T10:05:03;7.80;;;7.20;;
4001;SDS011;2015;48.670;9.060;2022-07-21T10:07:39;7.15;;;6.55;;
4001;SDS011;2015;48.670;9.060;2022-07-21T10:10:13;7.28;;;6.78;;
4001;SDS011;2015;48.670;9.060;2022-07-21T10:12:51;7.65;;;7.15;;
4001;SDS011;2015;48.670;9.060;2022-07-21T10:15:23;7.25;;;6.85;;
4001;SDS011;2015;48.670;9.060;2022-07-21T10:17:55;6.45;;;5.95;;
4001;SDS011;2015;48.670;9.060;2022-07-21T10:20:34;6.75;;;6.28;;
4001;SDS011;2015;48.670;9.060;2022-07-21T10:23:21;7.43;;;6.93;;
4001;SDS011;2015;48.670;9.060;2022-07-21T10:25:59;7.40;;;6.82;;
4001;SDS011;2015;48.670;9.060;2022-07-21T10:28:34;7.00;;;6.50;;
4001;SDS011;2015;48.670;9.060;2022-07-21T10:31:19;7.25;;;6.80;;
4001;SDS011;2015;48.670;9.060;2022-07-21T10:33:57;7.88;;;7.43;;
4001;SDS011;2015;48.670;9.060;2022-07-21T10:41:41;7.20;;;6.68;;
4001;SDS011;2015;48.670;9.060;2022-07-21T10:49:52;5.70;;;5.40;;
4001;SDS011;2015;48.670;9.060;2022-07-21T10:55:13;7.47;;;6.97;;
4001;SDS011;2015;48.670;9.060;2022-07-21T10:57:48;7.53;;;7.13;;
4001;SDS011;2015;48.670;9.060;2022-07-21T11:00:43;6.25;;;5.85;;
4001;SDS011;2015;48.670;9.060;2022-07-21T11:03:27;6.07;;;5.78;;
4001;SDS011;2015;48.670;9.060;2022-07-21T11:09:08;7.78;;;7.18;;
4001;SDS011;2015;48.670;9.060;2022-07-21T11:12:01;7.30;;;6.80;;
4001;SDS011;2015;48.670;9.060;2022-07-21T11:14:43;6.95;;;6.55;;
4001;SDS011;2015;48.670;9.060;2022-07-21T11:17:24;6.35;;;5.95;;
4001;SDS011;2015;48.670;9.060;2022-07-21T11:20:00;6.65;;;6.35;;
4001;SDS011;2015;48.670;9.060;2022-07-21T11:22:33;6.55;;;6.13;;
4001;SDS011;2015;48.670;9.060;2022-07-21T11:25:05;6.88;;;6.38;;
4001;SDS011;2015;48.670;9.060;2022-07-21T11:27:38;7.07;;;6.57;;
4001;SDS011;2015;48.670;9.060;2022-07-21T11:30:17;6.65;;;6.25;;
4001;SDS011;2015;48.670;9.060;2022-07-21T11:32:49;6.53;;;5.72;;
4001;SDS011;2015;48.670;9.060;2022-07-21T11:35:21;6.80;;;6.30;;
4001;SDS011;2015;48.670;9.060;2022-07-21T11:37:53;7.60;;;6.38;;
4001;SDS011;2015;48.670;9.060;2022-07-21T11:40:27;7.15;;;6.65;;
4001;SDS011;2015;48.670;9.060;2022-07-21T11:43:00;6.40;;;5.90;;
4001;SDS011;2015;48.670;9.060;2022-07-21T11:45:31;6.60;;;6.05;;
4001;SDS011;2015;48.670;9.060;2022-07-21T11:48:03;6.47;;;5.95;;
4001;SDS011;2015;48.670;9.060;2022-07-21T11:50:35;6.97;;;6.47;;
4001;SDS011;2015;48.670;9.060;2022-07-21T11:53:07;7.28;;;6.70;;
4001;SDS011;2015;48.670;9.060;2022-07-21T11:55:39;7.45;;;7.00;;
4001;SDS011;2015;48.670;9.060;2022-07-21T11:58:14;6.50;;;5.93;;
4001;SDS011;2015;48.670;9.060;2022-07-21T12:00:46;7.10;;;6.50;;
4001;SDS011;2015;48.670;9.060;2022-07-21T12:03:19;6.30;;;5.70;;
4001;SDS011;2015;48.670;9.060;2022-07-21T12:05:51;7.03;;;6.38;;
4001;SDS011;2015;48.670;9.060;2022-07-21T12:08:23;6.13;;;5.70;;
4001;SDS011;2015;48.670;9.060;2022-07-21T12:11:08;7.17;;;6.57;;
4001;SDS011;2015;48.670;9.060;2022-07-21T12:13:53;5.87;;;5.57;;
4001;SDS011;2015;48.670;9.060;2022-07-21T12:16:27;6.23;;;5.80;;
4001;SDS011;2015;48.670;9.060;2022-07-21T12:19:09;6.67;;;6.27;;
4001;SDS011;2015;48.670;9.060;2022-07-21T12:21:49;6.35;;;5.82;;
4001;SDS011;2015;48.670;9.060;2022-07-21T12:24:22;7.40;;;6.90;;
4001;SDS011;2015;48.670;9.060;2022-07-21T12:27:28;7.40;;;6.70;;
4001;SDS011;2015;48.670;9.060;2022-07-21T12:30:00;6.38;;;5.97;;
4001;SDS011;2015;48.670;9.060;2022-07-21T12:35:23;7.63;;;6.70;;
4001;SDS011;2015;48.670;9.060;2022-07-21T12:38:04;6.15;;;5.78;;
4001;SDS011;2015;48.670;9.060;2022-07-21T12:40:42;6.30;;;5.63;;
4001;SDS011;2015;48.670;9.060;2022-07-21T12:43:36;6.30;;;5.90;;
4001;SDS011;2015;48.670;9.060;2022-07-21T12:48:41;7.05;;;6.55;;
4001;SDS011;2015;48.670;9.060;2022-07-21T12:53:52;6.15;;;5.75;;
4001;SDS011;2015;48.670;9.060;2022-07-21T12:56:27;6.37;;;6.00;;
4001;SDS011;2015;48.670;9.060;2022-07-21T12:59:01;6.33;;;5.90;;
4001;SDS011;2015;48.670;9.060;2022-07-21T13:01:34;6.87;;;5.67;;
4001;SDS011;2015;48.670;9.060;2022-07-21T13:04:06;5.97;;;5.67;;
4001;SDS011;2015;48.670;9.060;2022-07-21T13:06:38;5.83;;;5.53;;
4001;SDS011;2015;48.670;9.060;2022-07-21T13:09:10;6.50;;;5.90;;
4001;SDS011;2015;48.670;9.060;2022-07-21T13:11:49;7.57;;;6.97;;
4001;SDS011;2015;48.670;9.060;2022-07-21T13:14:21;8.87;;;7.70;;
4001;SDS011;2015;48.670;9.060;2022-07-21T13:16:58;9.67;;;8.87;;
4001;SDS011;2015;48.670;9.060;2022-07-21T13:19:30;7.20;;;6.60;;
4001;SDS011;2015;48.670;9.060;2022-07-21T13:22:02;5.97;;;5.67;;
4001;SDS011;2015;48.670;9.060;2022-07-21T13:24:34;6.70;;;6.20;;
4001;SDS011;2015;48.670;9.060;2022-07-21T13:27:06;7.77;;;7.00;;
4001;SDS011;2015;48.670;9.060;2022-07-21T13:29:39;7.73;;;6.93;;
4001;SDS011;2015;48.670;9.060;2022-07-21T13:32:11;8.20;;;7.50;;
4001;SDS011;2015;48.670;9.060;2022-07-21T13:34:42;11.50;;;8.50;;
4001;SDS011;2015;48.670;9.060;2022-07-21T13:37:34;7.57;;;7.13;;
4001;SDS011;2015;48.670;9.060;2022-07-21T13:40:06;9.90;;;8.47;;
4001;SDS011;2015;48.670;9.060;2022-07-21T13:42:58;7.87;;;7.37;;
4001;SDS011;2015;48.670;9.060;2022-07-21T13:45:50;9.20;;;8.50;;
4001;SDS011;2015;48.670;9.060;2022-07-21T13:48:22;10.77;;;9.90;;
4001;SDS011;2015;48.670;9.060;2022-07-21T13:50:54;7.63;;;7.13;;
4001;SDS011;2015;48.670;9.060;2022-07-21T13:53:26;8.17;;;7.63;;
4001;SDS011;2015;48.670;9.060;2022-07-21T13:55:58;9.10;;;8.27;;
4001;SDS011;2015;48.670;9.060;2022-07-21T13:58:29;9.40;;;8.53;;
4001;SDS011;2015;48.670;9.060;2022-07-21T14:01:01;8.37;;;7.63;;
4001;SDS011;2015;48.670;9.060;2022-07-21T14:03:34;9.13;;;8.53;;
4001;SDS011;2015;48.670;9.060;2022-07-21T14:06:06;9.10;;;8.30;;
4001;SDS011;2015;48.670;9.060;2022-07-21T14:08:38;8.67;;;7.97;;
4001;SDS011;2015;48.670;9.060;2022-07-21T14:11:10;7.77;;;7.17;;
4001;SDS011;2015;48.670;9.060;2022-07-21T14:13:44;9.05;;;8.25;;
4001;SDS011;2015;48.670;9.060;2022-07-21T14:16:16;8.27;;;7.57;;
4001;SDS011;2015;48.670;9.060;2022-07-21T14:18:48;8.10;;;7.50;;
4001;SDS011;2015;48.670;9.060;2022-07-21T14:21:20;8.27;;;7.77;;
4001;SDS011;2015;48.670;9.060;2022-07-21T14:23:52;7.87;;;7.27;;
4001;SDS011;2015;48.670;9.060;2022-07-21T14:26:43;10.30;;;9.13;;
4001;SDS011;2015;48.670;9.060;2022-07-21T14:29:16;8.27;;;7.60;;
4001;SDS011;2015;48.670;9.060;2022-07-21T14:31:48;9.00;;;8.20;;
4001;SDS011;2015;48.670;9.060;2022-07-21T14:34:20;8.10;;;7.50;;
4001;SDS011;2015;48.670;9.060;2022-07-21T14:36:52;8.83;;;8.13;;
4001;SDS011;2015;48.670;9.060;2022-07-21T14:39:24;8.53;;;8.00;;
4001;SDS011;2015;48.670;9.060;2022-07-21T14:41:56;9.17;;;8.13;;
4001;SDS011;2015;48.670;9.060;2022-07-21T14:44:28;8.53;;;7.83;;
4001;SDS011;2015;48.670;9.060;2022-07-21T14:46:59;9.30;;;8.50;;
4001;SDS011;2015;48.670;9.060;2022-07-21T14:49:31;8.30;;;7.63;;
4001;SDS011;2015;48.670;9.060;2022-07-21T14:52:04;8.03;;;7.50;;
4001;SDS011;2015;48.670;9.060;2022-07-21T14:54:37;8.37;;;7.70;;
4001;SDS011;2015;48.670;9.060;2022-07-21T14:57:08;9.40;;;8.73;;
4001;SDS011;2015;48.670;9.060;2022-07-21T14:59:41;9.70;;;8.83;;
4001;SDS011;2015;48.670;9.060;2022-07-21T15:02:13;8.57;;;7.80;;
4001;SDS011;2015;48.670;9.060;2022-07-21T15:04:51;9.40;;;8.60;;
4001;SDS011;2015;48.670;9.060;2022-07-21T15:07:23;8.70;;;8.00;;
4001;SDS011;2015;48.670;9.060;2022-07-21T15:09:55;9.67;;;8.77;;
4001;SDS011;2015;48.670;9.060;2022-07-21T15:12:27;8.00;;;7.37;;
4001;SDS011;2015;48.670;9.060;2022-07-21T15:14:59;8.37;;;6.97;;
4001;SDS011;2015;48.670;9.060;2022-07-21T15:17:31;8.27;;;7.73;;
4001;SDS011;2015;48.670;9.060;2022-07-21T15:20:03;7.73;;;7.10;;
4001;SDS011;2015;48.670;9.060;2022-07-21T15:22:43;8.07;;;7.47;;
4001;SDS011;2015;48.670;9.060;2022-07-21T15:25:15;7.83;;;7.03;;
4001;SDS011;2015;48.670;9.060;2022-07-21T15:27:51;7.80;;;7.20;;
4001;SDS011;2015;48.670;9.060;2022-07-21T15:30:23;7.83;;;7.23;;
4001;SDS011;2015;48.670;9.060;2022-07-21T15:32:55;8.67;;;7.70;;
4001;SDS011;2015;48.670;9.060;2022-07-21T15:35:27;7.67;;;7.03;;
4001;SDS011;2015;48.670;9.060;2022-07-21T15:37:59;7.53;;;7.03;;
4001;SDS011;2015;48.670;9.060;2022-07-21T15:40:31;7.60;;;7.03;;
4001;SDS011;2015;48.670;9.060;2022-07-21T15:43:03;8.47;;;7.73;;
4001;SDS011;2015;48.670;9.060;2022-07-21T15:45:35;9.07;;;8.13;;
4001;SDS011;2015;48.670;9.060;2022-07-21T15:48:07;7.43;;;6.83;;
4001;SDS011;2015;48.670;9.060;2022-07-21T15:50:39;8.23;;;7.63;;
4001;SDS011;2015;48.670;9.060;2022-07-21T15:53:11;7.83;;;7.13;;
4001;SDS011;2015;48.670;9.060;2022-07-21T15:55:43;7.63;;;7.13;;
4001;SDS011;2015;48.670;9.060;2022-07-21T15:58:19;8.47;;;7.87;;
4001;SDS011;2015;48.670;9.060;2022-07-21T16:00:51;9.10;;;8.27;;
4001;SDS011;2015;48.670;9.060;2022-07-21T16:03:23;7.07;;;6.47;;
4001;SDS011;2015;48.670;9.060;2022-07-21T16:05:55;7.13;;;6.53;;